createdAt,value
2019-03-25T00:00:46.222Z,0.68
2019-03-25T00:03:16.900Z,0.70
2019-03-25T00:05:47.674Z,0.95
2019-03-25T00:08:18.642Z,0.80
2019-03-25T00:10:49.592Z,0.70
2019-03-25T00:13:20.078Z,0.70
2019-03-25T00:15:50.926Z,0.70
2019-03-25T00:18:21.389Z,0.88
2019-03-25T00:20:52.250Z,0.90
2019-03-25T00:23:22.942Z,0.90
2019-03-25T00:25:53.787Z,0.80
2019-03-25T00:28:24.525Z,0.70
2019-03-25T00:30:55.294Z,0.95
2019-03-25T00:33:25.684Z,0.70
2019-03-25T00:35:57.125Z,0.70
2019-03-25T00:38:27.988Z,0.70
2019-03-25T00:40:58.454Z,0.75
2019-03-25T00:43:29.264Z,0.72
2019-03-25T00:46:00.025Z,1.42
2019-03-25T00:48:30.554Z,1.10
2019-03-25T00:51:00.938Z,0.60
2019-03-25T00:53:31.421Z,0.82
2019-03-25T00:56:02.311Z,0.80
2019-03-25T00:58:33.766Z,0.93
2019-03-25T01:01:04.254Z,0.72
2019-03-25T01:03:34.622Z,0.85
2019-03-25T01:06:05.119Z,0.65
2019-03-25T01:08:35.643Z,0.68
2019-03-25T01:11:06.556Z,0.78
2019-03-25T01:13:37.066Z,0.90
2019-03-25T01:16:07.775Z,0.80
2019-03-25T01:18:38.261Z,0.70
2019-03-25T01:21:09.155Z,0.90
2019-03-25T01:23:39.679Z,0.75
2019-03-25T01:26:10.588Z,0.93
2019-03-25T01:28:40.990Z,1.00
2019-03-25T01:31:11.409Z,1.02
2019-03-25T01:33:41.877Z,1.00
2019-03-25T01:36:12.757Z,1.05
2019-03-25T01:38:43.318Z,0.90
2019-03-25T01:41:14.080Z,1.00
2019-03-25T01:43:44.826Z,0.80
2019-03-25T01:46:15.294Z,0.90
2019-03-25T01:48:45.853Z,0.70
2019-03-25T01:51:16.829Z,0.80
2019-03-25T01:53:47.346Z,1.00
2019-03-25T01:56:17.783Z,0.80
2019-03-25T01:58:48.177Z,0.80
2019-03-25T02:01:18.659Z,0.75
2019-03-25T02:03:49.470Z,1.05
2019-03-25T02:06:19.846Z,1.17
2019-03-25T02:08:50.648Z,0.80
2019-03-25T02:11:22.351Z,0.80
2019-03-25T02:13:53.002Z,0.70
2019-03-25T02:16:23.457Z,0.85
2019-03-25T02:18:53.890Z,0.93
2019-03-25T02:21:24.418Z,0.90
2019-03-25T02:23:55.220Z,0.80
2019-03-25T02:26:25.763Z,0.78
2019-03-25T02:28:56.406Z,0.70
2019-03-25T02:31:26.886Z,0.70
2019-03-25T02:33:57.602Z,0.90
2019-03-25T02:36:28.225Z,1.17
2019-03-25T02:38:58.807Z,0.72
2019-03-25T02:41:29.449Z,0.72
2019-03-25T02:44:00.267Z,1.05
2019-03-25T02:46:31.054Z,0.85
2019-03-25T02:49:01.548Z,0.95
2019-03-25T02:51:32.495Z,0.90
2019-03-25T02:54:02.959Z,0.72
2019-03-25T02:56:33.665Z,0.72
2019-03-25T02:59:04.123Z,0.80
2019-03-25T03:01:34.715Z,0.88
2019-03-25T03:04:05.077Z,0.70
2019-03-25T03:06:35.486Z,0.78
2019-03-25T03:09:07.974Z,0.70
2019-03-25T03:11:38.529Z,0.60
2019-03-25T03:14:09.121Z,0.65
2019-03-25T03:16:39.936Z,0.70
2019-03-25T03:19:10.584Z,0.70
2019-03-25T03:21:40.951Z,0.78
2019-03-25T03:24:11.696Z,0.70
2019-03-25T03:26:42.351Z,0.70
2019-03-25T03:29:13.063Z,0.80
2019-03-25T03:31:43.921Z,1.07
2019-03-25T03:34:14.412Z,0.80
2019-03-25T03:36:45.288Z,0.93
2019-03-25T03:39:15.957Z,0.80
2019-03-25T03:41:46.739Z,0.80
2019-03-25T03:44:17.757Z,0.90
2019-03-25T03:46:48.701Z,0.90
2019-03-25T03:49:19.152Z,0.80
2019-03-25T03:51:50.541Z,0.80
2019-03-25T03:54:21.117Z,0.93
2019-03-25T03:56:54.544Z,0.80
2019-03-25T03:59:25.495Z,0.72
2019-03-25T04:01:55.934Z,0.70
2019-03-25T04:04:26.784Z,0.80
2019-03-25T04:06:57.923Z,0.80
2019-03-25T04:09:28.379Z,0.70
2019-03-25T04:11:58.932Z,0.72
2019-03-25T04:14:29.561Z,0.78
2019-03-25T04:17:00.239Z,0.70
2019-03-25T04:19:30.585Z,0.80
2019-03-25T04:22:00.995Z,0.70
2019-03-25T04:24:31.455Z,0.70
2019-03-25T04:27:02.301Z,0.70
2019-03-25T04:29:32.689Z,0.85
2019-03-25T04:32:06.082Z,0.85
2019-03-25T04:34:35.305Z,0.80
2019-03-25T04:37:05.790Z,0.70
2019-03-25T04:39:36.462Z,0.80
2019-03-25T04:42:06.915Z,0.70
2019-03-25T04:44:37.602Z,0.65
2019-03-25T04:47:08.766Z,1.02
2019-03-25T04:49:39.677Z,0.80
2019-03-25T04:52:10.387Z,0.70
2019-03-25T04:54:40.759Z,0.82
2019-03-25T04:57:11.273Z,0.80
2019-03-25T04:59:41.766Z,0.70
2019-03-25T05:02:12.422Z,0.82
2019-03-25T05:04:43.278Z,0.70
2019-03-25T05:07:13.808Z,0.70
2019-03-25T05:09:44.627Z,0.80
2019-03-25T05:12:15.671Z,0.80
2019-03-25T05:14:46.149Z,0.70
2019-03-25T05:17:17.030Z,0.70
2019-03-25T05:19:47.813Z,0.82
2019-03-25T05:22:18.561Z,0.80
2019-03-25T05:24:49.249Z,0.85
2019-03-25T05:27:19.702Z,0.90
2019-03-25T05:29:50.165Z,0.88
2019-03-25T05:32:20.587Z,0.70
2019-03-25T05:34:51.277Z,0.93
2019-03-25T05:37:21.756Z,0.70
2019-03-25T05:39:52.518Z,0.90
2019-03-25T05:42:22.951Z,0.85
2019-03-25T05:44:53.482Z,1.00
2019-03-25T05:47:24.099Z,0.82
2019-03-25T05:49:54.455Z,0.82
2019-03-25T05:52:24.862Z,0.90
2019-03-25T05:54:55.785Z,0.90
2019-03-25T05:57:26.498Z,0.70
2019-03-25T05:59:57.129Z,0.80
2019-03-25T06:02:28.018Z,0.80
2019-03-25T06:04:58.378Z,0.98
2019-03-25T06:07:29.071Z,0.85
2019-03-25T06:09:59.540Z,0.88
2019-03-25T06:12:30.353Z,0.85
2019-03-25T06:15:01.227Z,0.82
2019-03-25T06:17:31.610Z,0.90
2019-03-25T06:20:02.439Z,0.75
2019-03-25T06:22:32.927Z,0.78
2019-03-25T06:25:03.332Z,0.90
2019-03-25T06:27:33.765Z,0.90
2019-03-25T06:30:04.955Z,0.82
2019-03-25T06:32:35.380Z,0.93
2019-03-25T06:35:08.968Z,0.90
2019-03-25T06:37:39.781Z,0.80
2019-03-25T06:40:10.898Z,0.80
2019-03-25T06:42:41.412Z,0.85
2019-03-25T06:45:12.185Z,0.88
2019-03-25T06:47:42.700Z,0.98
2019-03-25T06:50:14.132Z,0.93
2019-03-25T06:52:44.617Z,0.90
2019-03-25T06:55:16.006Z,1.10
2019-03-25T06:57:46.808Z,0.95
2019-03-25T07:00:17.587Z,1.00
2019-03-25T07:02:48.369Z,1.05
2019-03-25T07:05:18.909Z,0.90
2019-03-25T07:07:49.408Z,1.00
2019-03-25T07:10:37.158Z,1.00
2019-03-25T07:13:08.101Z,0.90
2019-03-25T07:15:38.449Z,0.90
2019-03-25T07:18:09.788Z,0.90
2019-03-25T07:20:40.302Z,1.07
2019-03-25T07:23:10.875Z,1.00
2019-03-25T07:25:41.657Z,1.00
2019-03-25T07:29:05.648Z,1.10
2019-03-25T07:31:43.643Z,1.10
2019-03-25T07:34:14.209Z,0.90
2019-03-25T07:37:38.631Z,1.22
2019-03-25T07:40:10.940Z,1.05
2019-03-25T07:43:00.496Z,1.10
2019-03-25T07:45:30.969Z,1.30
2019-03-25T07:48:42.902Z,0.90
2019-03-25T07:52:07.550Z,1.10
2019-03-25T07:54:38.397Z,1.20
2019-03-25T07:57:11.530Z,0.98
2019-03-25T08:00:34.810Z,1.07
2019-03-25T08:03:58.481Z,1.20
2019-03-25T08:06:29.040Z,1.00
2019-03-25T08:09:03.649Z,1.05
2019-03-25T08:11:31.669Z,1.50
2019-03-25T08:14:02.380Z,1.20
2019-03-25T08:16:32.840Z,1.10
2019-03-25T08:19:03.602Z,1.20
2019-03-25T08:21:34.263Z,1.20
2019-03-25T08:24:05.242Z,1.30
2019-03-25T08:26:37.180Z,1.07
2019-03-25T08:29:08.014Z,1.25
2019-03-25T08:31:38.446Z,1.20
2019-03-25T08:34:09.242Z,1.30
2019-03-25T08:36:39.898Z,1.22
2019-03-25T08:39:10.357Z,1.20
2019-03-25T08:41:41.099Z,1.22
2019-03-25T08:44:11.524Z,1.40
2019-03-25T08:46:43.847Z,1.35
2019-03-25T08:49:14.309Z,1.37
2019-03-25T08:51:45.226Z,1.10
2019-03-25T08:54:15.914Z,1.55
2019-03-25T08:56:46.437Z,1.07
2019-03-25T08:59:17.220Z,1.10
2019-03-25T09:01:47.622Z,1.40
2019-03-25T09:04:18.749Z,1.30
2019-03-25T09:06:49.652Z,1.25
2019-03-25T09:09:20.238Z,1.40
2019-03-25T09:11:51.814Z,1.17
2019-03-25T09:14:22.847Z,1.10
2019-03-25T09:16:53.210Z,1.10
2019-03-25T09:19:24.010Z,1.20
2019-03-25T09:21:54.842Z,1.30
2019-03-25T09:24:26.122Z,1.47
2019-03-25T09:26:56.709Z,1.15
2019-03-25T09:29:27.468Z,1.30
2019-03-25T09:31:58.367Z,1.30
2019-03-25T09:34:28.791Z,1.20
2019-03-25T09:36:59.756Z,1.37
2019-03-25T09:39:30.462Z,1.25
2019-03-25T09:42:01.214Z,1.32
2019-03-25T09:44:31.882Z,1.37
2019-03-25T09:47:02.457Z,1.35
2019-03-25T09:49:33.195Z,1.30
2019-03-25T09:52:04.006Z,1.22
2019-03-25T09:54:34.392Z,1.30
2019-03-25T09:57:04.886Z,1.40
2019-03-25T09:59:35.828Z,1.37
2019-03-25T10:02:06.409Z,1.20
2019-03-25T10:04:37.087Z,1.47
2019-03-25T10:07:08.021Z,1.20
2019-03-25T10:09:38.858Z,1.37
2019-03-25T10:12:09.539Z,1.40
2019-03-25T10:14:40.369Z,1.30
2019-03-25T10:17:10.721Z,1.52
2019-03-25T10:19:41.121Z,1.40
2019-03-25T10:22:11.865Z,1.62
2019-03-25T10:24:42.845Z,1.40
2019-03-25T10:27:13.238Z,1.47
2019-03-25T10:29:43.935Z,1.50
2019-03-25T10:32:14.505Z,1.40
2019-03-25T10:34:45.202Z,1.30
2019-03-25T10:37:15.668Z,1.57
2019-03-25T10:39:46.153Z,1.67
2019-03-25T10:42:16.613Z,1.45
2019-03-25T10:44:47.267Z,1.15
2019-03-25T10:47:18.161Z,1.30
2019-03-25T10:49:48.570Z,1.35
2019-03-25T10:52:19.046Z,1.40
2019-03-25T10:54:49.626Z,1.37
2019-03-25T10:57:20.848Z,1.30
2019-03-25T10:59:51.637Z,1.50
2019-03-25T11:02:22.477Z,1.30
2019-03-25T11:04:52.956Z,1.30
2019-03-25T11:07:24.470Z,1.40
2019-03-25T11:09:55.209Z,1.37
2019-03-25T11:12:25.866Z,1.40
2019-03-25T11:14:56.270Z,1.47
2019-03-25T11:17:27.357Z,1.30
2019-03-25T11:19:58.207Z,1.60
2019-03-25T11:22:30.101Z,1.37
2019-03-25T11:25:00.842Z,1.45
2019-03-25T11:27:31.337Z,1.70
2019-03-25T11:30:01.826Z,1.50
2019-03-25T11:32:32.704Z,1.57
2019-03-25T11:35:05.555Z,1.50
2019-03-25T11:37:35.266Z,1.62
2019-03-25T11:40:07.953Z,1.40
2019-03-25T11:42:38.758Z,1.30
2019-03-25T11:45:14.229Z,1.82
2019-03-25T11:47:44.782Z,1.85
2019-03-25T11:50:16.159Z,1.25
2019-03-25T11:52:46.950Z,1.35
2019-03-25T11:55:18.747Z,1.60
2019-03-25T11:57:49.557Z,1.40
2019-03-25T12:00:20.176Z,1.40
2019-03-25T12:02:50.900Z,1.42
2019-03-25T12:05:21.782Z,1.60
2019-03-25T12:07:52.420Z,1.45
2019-03-25T12:10:22.960Z,1.35
2019-03-25T12:12:53.492Z,1.50
2019-03-25T12:15:23.867Z,1.50
2019-03-25T12:17:54.962Z,1.62
2019-03-25T12:20:25.901Z,1.40
2019-03-25T12:22:56.553Z,1.55
2019-03-25T12:25:27.262Z,1.47
2019-03-25T12:27:58.028Z,1.30
2019-03-25T12:30:28.798Z,1.50
2019-03-25T12:33:03.866Z,1.47
2019-03-25T12:35:31.566Z,1.40
2019-03-25T12:38:01.927Z,1.32
2019-03-25T12:40:32.621Z,1.50
2019-03-25T12:43:03.096Z,1.70
2019-03-25T12:45:33.850Z,1.60
2019-03-25T12:48:04.275Z,1.52
2019-03-25T12:50:35.120Z,1.40
2019-03-25T12:53:05.708Z,1.65
2019-03-25T12:55:36.359Z,1.20
2019-03-25T12:58:07.618Z,1.40
2019-03-25T13:00:43.035Z,1.45
2019-03-25T13:03:13.617Z,1.70
2019-03-25T13:05:44.935Z,1.40
2019-03-25T13:08:15.940Z,1.60
2019-03-25T13:10:46.670Z,1.50
2019-03-25T13:13:17.633Z,1.50
2019-03-25T13:16:00.450Z,1.55
2019-03-25T13:18:31.429Z,1.50
2019-03-25T13:21:02.229Z,1.77
2019-03-25T13:23:33.204Z,1.30
2019-03-25T13:26:04.058Z,1.47
2019-03-25T13:28:34.443Z,1.95
2019-03-25T13:31:05.184Z,1.47
2019-03-25T13:33:35.692Z,1.42
2019-03-25T13:36:06.947Z,1.60
2019-03-25T13:38:37.740Z,1.65
2019-03-25T13:41:08.662Z,1.80
2019-03-25T13:43:39.582Z,1.52
2019-03-25T13:46:10.360Z,1.60
2019-03-25T13:48:40.758Z,1.60
2019-03-25T13:51:11.214Z,1.60
2019-03-25T13:53:42.143Z,1.60
2019-03-25T13:56:13.090Z,1.65
2019-03-25T13:58:43.871Z,1.37
2019-03-25T14:01:14.663Z,1.30
2019-03-25T14:03:45.423Z,1.50
2019-03-25T14:06:17.312Z,2.15
2019-03-25T14:08:47.808Z,2.12
2019-03-25T14:11:18.525Z,1.95
2019-03-25T14:13:49.677Z,1.77
2019-03-25T14:16:20.961Z,2.33
2019-03-25T14:18:51.852Z,2.17
2019-03-25T14:21:22.202Z,2.15
2019-03-25T14:23:52.699Z,2.20
2019-03-25T14:26:23.081Z,2.22
2019-03-25T14:28:53.839Z,2.20
2019-03-25T14:31:24.257Z,2.25
2019-03-25T14:33:54.607Z,2.40
2019-03-25T14:36:25.197Z,2.10
2019-03-25T14:38:56.209Z,2.40
2019-03-25T14:41:27.966Z,2.12
2019-03-25T14:43:58.574Z,4.67
2019-03-25T14:46:29.777Z,2.58
2019-03-25T14:49:01.006Z,2.35
2019-03-25T14:51:33.417Z,1.98
2019-03-25T14:54:06.063Z,1.80
2019-03-25T14:56:37.717Z,2.85
2019-03-25T14:59:13.167Z,2.08
2019-03-25T15:01:43.653Z,1.98
2019-03-25T15:04:17.658Z,2.02
2019-03-25T15:06:49.421Z,2.08
2019-03-25T15:09:21.902Z,2.20
2019-03-25T15:11:52.409Z,2.10
2019-03-25T15:14:24.868Z,2.17
2019-03-25T15:16:55.378Z,1.80
2019-03-25T15:19:25.857Z,2.00
2019-03-25T15:21:56.661Z,2.25
2019-03-25T15:24:27.346Z,2.37
2019-03-25T15:26:57.745Z,1.90
2019-03-25T15:29:28.213Z,1.82
2019-03-25T15:31:58.663Z,1.80
2019-03-25T15:34:29.051Z,2.87
2019-03-25T15:36:59.498Z,1.90
2019-03-25T15:39:29.961Z,2.70
2019-03-25T15:42:00.497Z,2.75
2019-03-25T15:44:30.845Z,3.30
2019-03-25T15:47:01.198Z,1.92
2019-03-25T15:49:31.685Z,1.95
2019-03-25T15:52:02.044Z,2.17
2019-03-25T15:54:32.618Z,2.30
2019-03-25T15:57:03.109Z,2.15
2019-03-25T15:59:33.585Z,2.25
2019-03-25T16:02:23.109Z,2.20
2019-03-25T16:04:53.791Z,2.40
2019-03-25T16:07:24.654Z,2.10
2019-03-25T16:09:55.136Z,2.45
2019-03-25T16:15:09.240Z,2.30
2019-03-25T16:17:39.689Z,2.30
2019-03-25T16:20:10.261Z,2.05
2019-03-25T16:22:40.831Z,2.20
2019-03-25T16:25:14.086Z,2.08
2019-03-25T16:27:44.554Z,2.22
2019-03-25T16:30:15.649Z,2.00
2019-03-25T16:32:46.070Z,2.10
2019-03-25T16:35:16.463Z,2.20
2019-03-25T16:37:46.917Z,2.10
2019-03-25T16:40:17.374Z,1.92
2019-03-25T16:42:47.747Z,1.95
2019-03-25T16:45:18.178Z,1.95
2019-03-25T16:47:48.549Z,1.92
2019-03-25T16:50:19.009Z,1.98
2019-03-25T16:52:49.440Z,1.95
2019-03-25T16:55:19.945Z,1.87
2019-03-25T16:57:50.368Z,2.05
2019-03-25T17:00:27.192Z,1.75
2019-03-25T17:02:52.665Z,1.92
2019-03-25T17:05:23.500Z,1.90
2019-03-25T17:07:53.903Z,1.75
2019-03-25T17:10:24.278Z,2.02
2019-03-25T17:12:54.733Z,2.02
2019-03-25T17:15:25.086Z,1.70
2019-03-25T17:17:55.934Z,1.80
2019-03-25T17:20:26.406Z,1.85
2019-03-25T17:22:56.864Z,1.80
2019-03-25T17:25:28.380Z,2.00
2019-03-25T17:27:59.234Z,1.75
2019-03-25T17:30:29.812Z,1.72
2019-03-25T17:33:00.729Z,2.33
2019-03-25T17:35:31.165Z,2.92
2019-03-25T17:38:01.620Z,2.05
2019-03-25T17:40:32.241Z,1.90
2019-03-25T17:43:02.771Z,2.47
2019-03-25T17:45:33.209Z,1.82
2019-03-25T17:48:03.766Z,2.08
2019-03-25T17:50:35.451Z,1.80
2019-03-25T17:53:05.961Z,2.15
2019-03-25T17:55:36.298Z,1.70
2019-03-25T17:58:08.194Z,1.70
2019-03-25T18:00:57.241Z,1.82
2019-03-25T18:03:27.655Z,1.95
2019-03-25T18:05:58.027Z,2.95
2019-03-25T18:08:28.582Z,4.42
2019-03-25T18:10:59.053Z,3.20
2019-03-25T18:13:29.473Z,4.35
2019-03-25T18:16:00.545Z,4.42
2019-03-25T18:18:30.981Z,6.47
2019-03-25T18:21:01.401Z,2.50
2019-03-25T18:23:31.954Z,2.98
2019-03-25T18:26:05.241Z,2.95
2019-03-25T18:28:36.063Z,3.15
2019-03-25T18:31:06.882Z,2.70
2019-03-25T18:33:38.183Z,3.33
2019-03-25T18:36:08.600Z,10.25
2019-03-25T18:38:39.074Z,4.90
2019-03-25T18:41:10.449Z,3.65
2019-03-25T18:43:40.857Z,2.60
2019-03-25T18:46:11.252Z,3.70
2019-03-25T18:48:41.807Z,2.45
2019-03-25T18:51:12.238Z,3.35
2019-03-25T18:53:42.614Z,2.35
2019-03-25T18:56:13.096Z,2.98
2019-03-25T18:58:43.522Z,2.58
2019-03-25T19:01:13.910Z,2.92
2019-03-25T19:03:44.320Z,2.30
2019-03-25T19:06:14.996Z,2.62
2019-03-25T19:08:45.771Z,2.83
2019-03-25T19:11:16.113Z,2.72
2019-03-25T19:13:46.532Z,2.85
2019-03-25T19:16:16.909Z,3.17
2019-03-25T19:18:47.954Z,2.72
2019-03-25T19:21:18.752Z,3.72
2019-03-25T19:23:49.202Z,4.53
2019-03-25T19:26:19.595Z,5.60
2019-03-25T19:28:49.989Z,3.10
2019-03-25T19:31:20.555Z,5.10
2019-03-25T19:33:50.968Z,3.15
2019-03-25T19:36:21.448Z,3.40
2019-03-25T19:38:51.936Z,3.15
2019-03-25T19:41:31.792Z,3.72
2019-03-25T19:43:54.309Z,3.45
2019-03-25T19:46:24.837Z,7.72
2019-03-25T19:48:55.222Z,7.35
2019-03-25T19:51:25.672Z,5.92
2019-03-25T19:53:56.127Z,4.53
2019-03-25T19:56:26.557Z,2.92
2019-03-25T19:58:57.037Z,7.42
2019-03-25T20:01:27.839Z,5.35
2019-03-25T20:03:58.343Z,14.40
2019-03-25T20:06:28.751Z,6.08
2019-03-25T20:08:59.271Z,13.55
2019-03-25T20:11:32.242Z,3.35
2019-03-25T20:14:02.049Z,6.58
2019-03-25T20:16:32.641Z,4.58
2019-03-25T20:19:03.126Z,5.55
2019-03-25T20:21:36.666Z,8.83
2019-03-25T20:24:07.175Z,8.20
2019-03-25T20:26:37.730Z,2.80
2019-03-25T20:29:08.244Z,5.85
2019-03-25T20:31:38.838Z,7.47
2019-03-25T20:34:11.167Z,11.28
2019-03-25T20:36:41.512Z,5.28
2019-03-25T20:39:12.408Z,5.97
2019-03-25T20:41:42.833Z,8.00
2019-03-25T20:44:13.260Z,4.83
2019-03-25T20:46:43.615Z,12.40
2019-03-25T20:49:14.149Z,4.78
2019-03-25T20:51:45.609Z,7.20
2019-03-25T20:54:16.280Z,6.92
2019-03-25T20:56:46.780Z,5.53
2019-03-25T20:59:17.245Z,2.95
2019-03-25T21:01:48.000Z,3.00
2019-03-25T21:04:18.709Z,3.08
2019-03-25T21:06:49.564Z,6.00
2019-03-25T21:09:22.098Z,10.18
2019-03-25T21:11:52.958Z,3.90
2019-03-25T21:14:23.833Z,9.43
2019-03-25T21:16:54.465Z,11.28
2019-03-25T21:19:25.136Z,2.83
2019-03-25T21:21:56.043Z,4.45
2019-03-25T21:24:26.779Z,5.50
2019-03-25T21:26:57.450Z,4.20
2019-03-25T21:29:28.281Z,4.22
2019-03-25T21:32:00.061Z,4.67
2019-03-25T21:34:30.799Z,4.17
2019-03-25T21:37:02.092Z,3.80
2019-03-25T21:39:32.783Z,4.30
2019-03-25T21:42:03.392Z,3.37
2019-03-25T21:44:34.141Z,3.87
2019-03-25T21:47:04.974Z,2.40
2019-03-25T21:49:35.510Z,5.35
2019-03-25T21:52:06.172Z,4.78
2019-03-25T21:54:36.930Z,5.22
2019-03-25T21:57:07.717Z,2.50
2019-03-25T21:59:38.491Z,5.67
2019-03-25T22:02:09.262Z,2.85
2019-03-25T22:04:39.955Z,2.30
2019-03-25T22:07:10.565Z,2.85
2019-03-25T22:09:41.276Z,2.35
2019-03-25T22:12:11.889Z,2.42
2019-03-25T22:14:42.669Z,4.12
2019-03-25T22:17:13.375Z,2.25
2019-03-25T22:19:44.062Z,4.65
2019-03-25T22:22:14.741Z,2.35
2019-03-25T22:24:45.568Z,2.35
2019-03-25T22:27:15.975Z,2.70
2019-03-25T22:29:46.503Z,2.12
2019-03-25T22:32:16.879Z,2.30
2019-03-25T22:34:47.527Z,2.30
2019-03-25T22:37:17.988Z,2.05
2019-03-25T22:39:48.451Z,2.10
2019-03-25T22:42:18.952Z,2.00
2019-03-25T22:44:49.297Z,2.80
2019-03-25T22:47:19.742Z,9.20
2019-03-25T22:49:50.461Z,5.15
2019-03-25T22:52:20.837Z,4.05
2019-03-25T22:54:51.221Z,2.05
2019-03-25T22:57:22.401Z,3.25
2019-03-25T22:59:53.225Z,2.80
2019-03-25T23:02:23.585Z,3.33
2019-03-25T23:04:54.272Z,2.90
2019-03-25T23:07:24.892Z,2.30
2019-03-25T23:09:55.276Z,3.30
2019-03-25T23:12:25.667Z,5.83
2019-03-25T23:14:56.145Z,2.17
2019-03-25T23:17:26.505Z,2.00
2019-03-25T23:19:57.111Z,2.08
2019-03-25T23:22:27.769Z,2.58
2019-03-25T23:24:58.851Z,2.42
2019-03-25T23:27:31.014Z,2.30
2019-03-25T23:30:02.767Z,2.42
2019-03-25T23:32:33.448Z,3.33
2019-03-25T23:35:04.074Z,2.60
2019-03-25T23:37:34.869Z,6.50
2019-03-25T23:40:08.197Z,3.25
2019-03-25T23:42:38.811Z,2.50
2019-03-25T23:45:09.665Z,2.47
2019-03-25T23:47:40.409Z,2.30
2019-03-25T23:50:10.980Z,4.62
2019-03-25T23:52:42.622Z,2.58
2019-03-25T23:55:13.189Z,3.92
2019-03-25T23:57:43.906Z,2.27
